sensor_id;sensor_type;location;lat;lon;timestamp;P1;durP1;ratioP1;P2;durP2;ratioP2
71502;SDS011;59322;51.382;7.372;2023-11-19T00:02:13;1999.90;;;999.90;;
71502;SDS011;59322;51.382;7.372;2023-11-19T00:04:39;1999.90;;;999.90;;
71502;SDS011;59322;51.382;7.372;2023-11-19T00:07:05;1999.90;;;999.90;;
71502;SDS011;59322;51.382;7.372;2023-11-19T00:09:31;1999.90;;;999.90;;
71502;SDS011;59322;51.382;7.372;2023-11-19T00:11:57;1999.90;;;999.90;;
71502;SDS011;59322;51.382;7.372;2023-11-19T00:14:23;1999.90;;;999.90;;
71502;SDS011;59322;51.382;7.372;2023-11-19T00:16:49;1999.90;;;999.90;;
71502;SDS011;59322;51.382;7.372;2023-11-19T00:19:15;1999.90;;;999.90;;
71502;SDS011;59322;51.382;7.372;2023-11-19T00:21:41;1999.90;;;999.90;;
71502;SDS011;59322;51.382;7.372;2023-11-19T00:24:07;1999.90;;;999.90;;
71502;SDS011;59322;51.382;7.372;2023-11-19T00:26:33;1999.90;;;999.90;;
71502;SDS011;59322;51.382;7.372;2023-11-19T00:28:58;1999.90;;;999.90;;
71502;SDS011;59322;51.382;7.372;2023-11-19T00:31:24;1999.90;;;999.90;;
71502;SDS011;59322;51.382;7.372;2023-11-19T00:33:50;1999.90;;;999.90;;
71502;SDS011;59322;51.382;7.372;2023-11-19T00:36:16;1999.90;;;999.90;;
71502;SDS011;59322;51.382;7.372;2023-11-19T00:38:42;1999.90;;;999.90;;
71502;SDS011;59322;51.382;7.372;2023-11-19T00:41:08;1999.90;;;999.90;;
71502;SDS011;59322;51.382;7.372;2023-11-19T00:43:34;1999.90;;;999.90;;
71502;SDS011;59322;51.382;7.372;2023-11-19T00:46:00;1999.90;;;999.90;;
71502;SDS011;59322;51.382;7.372;2023-11-19T00:48:25;1999.90;;;999.90;;
71502;SDS011;59322;51.382;7.372;2023-11-19T00:50:51;1999.90;;;999.90;;
71502;SDS011;59322;51.382;7.372;2023-11-19T00:53:17;1999.90;;;999.90;;
71502;SDS011;59322;51.382;7.372;2023-11-19T00:55:43;1999.90;;;999.90;;
71502;SDS011;59322;51.382;7.372;2023-11-19T00:58:09;1999.90;;;999.90;;
71502;SDS011;59322;51.382;7.372;2023-11-19T01:00:35;1999.90;;;999.90;;
71502;SDS011;59322;51.382;7.372;2023-11-19T01:03:01;1999.90;;;999.90;;
71502;SDS011;59322;51.382;7.372;2023-11-19T01:05:27;1999.90;;;999.90;;
71502;SDS011;59322;51.382;7.372;2023-11-19T01:07:53;1999.90;;;999.90;;
71502;SDS011;59322;51.382;7.372;2023-11-19T01:10:19;1999.90;;;999.90;;
71502;SDS011;59322;51.382;7.372;2023-11-19T01:12:45;1999.90;;;999.90;;
71502;SDS011;59322;51.382;7.372;2023-11-19T01:15:11;1999.90;;;999.90;;
71502;SDS011;59322;51.382;7.372;2023-11-19T01:17:37;1999.90;;;999.90;;
71502;SDS011;59322;51.382;7.372;2023-11-19T01:20:03;1999.90;;;999.90;;
71502;SDS011;59322;51.382;7.372;2023-11-19T01:22:29;1999.90;;;999.90;;
71502;SDS011;59322;51.382;7.372;2023-11-19T01:24:55;1999.90;;;999.90;;
71502;SDS011;59322;51.382;7.372;2023-11-19T01:27:21;1999.90;;;999.90;;
71502;SDS011;59322;51.382;7.372;2023-11-19T01:29:47;1999.90;;;999.90;;
71502;SDS011;59322;51.382;7.372;2023-11-19T01:32:13;1999.90;;;999.90;;
71502;SDS011;59322;51.382;7.372;2023-11-19T01:34:38;1999.90;;;999.90;;
71502;SDS011;59322;51.382;7.372;2023-11-19T01:37:04;1999.90;;;999.90;;
71502;SDS011;59322;51.382;7.372;2023-11-19T01:39:30;1999.90;;;999.90;;
71502;SDS011;59322;51.382;7.372;2023-11-19T01:41:56;1999.90;;;999.90;;
71502;SDS011;59322;51.382;7.372;2023-11-19T01:44:22;1999.90;;;999.90;;
71502;SDS011;59322;51.382;7.372;2023-11-19T01:46:48;1999.90;;;999.90;;
71502;SDS011;59322;51.382;7.372;2023-11-19T01:49:14;1999.90;;;999.90;;
71502;SDS011;59322;51.382;7.372;2023-11-19T01:51:40;75.25;;;71.03;;
71502;SDS011;59322;51.382;7.372;2023-11-19T01:54:07;69.03;;;65.05;;
71502;SDS011;59322;51.382;7.372;2023-11-19T01:56:37;64.55;;;60.78;;
71502;SDS011;59322;51.382;7.372;2023-11-19T01:59:04;70.65;;;66.30;;
71502;SDS011;59322;51.382;7.372;2023-11-19T02:01:30;113.72;;;107.03;;
71502;SDS011;59322;51.382;7.372;2023-11-19T02:03:56;1999.90;;;999.90;;
71502;SDS011;59322;51.382;7.372;2023-11-19T02:06:22;1999.90;;;999.90;;
71502;SDS011;59322;51.382;7.372;2023-11-19T02:08:48;1999.90;;;999.90;;
71502;SDS011;59322;51.382;7.372;2023-11-19T02:11:15;1999.90;;;999.90;;
71502;SDS011;59322;51.382;7.372;2023-11-19T02:13:41;1999.90;;;999.90;;
71502;SDS011;59322;51.382;7.372;2023-11-19T02:16:07;1999.90;;;999.90;;
71502;SDS011;59322;51.382;7.372;2023-11-19T02:18:33;1999.90;;;999.90;;
71502;SDS011;59322;51.382;7.372;2023-11-19T02:20:59;1999.90;;;999.90;;
71502;SDS011;59322;51.382;7.372;2023-11-19T02:23:28;1999.90;;;999.90;;
71502;SDS011;59322;51.382;7.372;2023-11-19T02:28:36;1999.90;;;999.90;;
71502;SDS011;59322;51.382;7.372;2023-11-19T02:31:02;1999.90;;;999.90;;
71502;SDS011;59322;51.382;7.372;2023-11-19T02:33:28;1999.90;;;999.90;;
71502;SDS011;59322;51.382;7.372;2023-11-19T02:35:54;1999.90;;;999.90;;
71502;SDS011;59322;51.382;7.372;2023-11-19T02:38:19;1999.90;;;999.90;;
71502;SDS011;59322;51.382;7.372;2023-11-19T02:40:45;1999.90;;;999.90;;
71502;SDS011;59322;51.382;7.372;2023-11-19T02:43:11;1999.90;;;999.90;;
71502;SDS011;59322;51.382;7.372;2023-11-19T02:45:37;1999.90;;;999.90;;
71502;SDS011;59322;51.382;7.372;2023-11-19T02:48:03;1999.90;;;999.90;;
71502;SDS011;59322;51.382;7.372;2023-11-19T02:50:29;1999.90;;;999.90;;
71502;SDS011;59322;51.382;7.372;2023-11-19T02:52:55;1999.90;;;999.90;;
71502;SDS011;59322;51.382;7.372;2023-11-19T02:55:21;1999.90;;;999.90;;
71502;SDS011;59322;51.382;7.372;2023-11-19T02:57:47;1999.90;;;999.90;;
71502;SDS011;59322;51.382;7.372;2023-11-19T03:00:17;68.50;;;64.00;;
71502;SDS011;59322;51.382;7.372;2023-11-19T03:02:43;68.68;;;64.22;;
71502;SDS011;59322;51.382;7.372;2023-11-19T03:05:10;69.32;;;64.63;;
71502;SDS011;59322;51.382;7.372;2023-11-19T03:07:36;71.57;;;67.00;;
71502;SDS011;59322;51.382;7.372;2023-11-19T03:10:02;77.10;;;72.40;;
71502;SDS011;59322;51.382;7.372;2023-11-19T03:12:28;80.00;;;74.90;;
71502;SDS011;59322;51.382;7.372;2023-11-19T03:14:54;90.20;;;84.60;;
71502;SDS011;59322;51.382;7.372;2023-11-19T03:17:20;92.65;;;86.47;;
71502;SDS011;59322;51.382;7.372;2023-11-19T03:19:46;98.20;;;91.85;;
71502;SDS011;59322;51.382;7.372;2023-11-19T03:22:12;95.80;;;89.80;;
71502;SDS011;59322;51.382;7.372;2023-11-19T03:24:37;99.40;;;93.25;;
71502;SDS011;59322;51.382;7.372;2023-11-19T03:27:03;101.10;;;94.28;;
71502;SDS011;59322;51.382;7.372;2023-11-19T03:29:29;91.15;;;85.30;;
71502;SDS011;59322;51.382;7.372;2023-11-19T03:31:55;81.88;;;76.50;;
71502;SDS011;59322;51.382;7.372;2023-11-19T03:34:21;70.85;;;66.15;;
71502;SDS011;59322;51.382;7.372;2023-11-19T03:36:47;76.30;;;71.22;;
71502;SDS011;59322;51.382;7.372;2023-11-19T03:39:13;93.18;;;86.70;;
71502;SDS011;59322;51.382;7.372;2023-11-19T03:41:39;106.95;;;100.13;;
71502;SDS011;59322;51.382;7.372;2023-11-19T03:44:05;59.38;;;54.50;;
71502;SDS011;59322;51.382;7.372;2023-11-19T03:46:31;54.65;;;50.75;;
71502;SDS011;59322;51.382;7.372;2023-11-19T03:48:56;69.25;;;63.78;;
71502;SDS011;59322;51.382;7.372;2023-11-19T03:51:22;53.38;;;49.38;;
71502;SDS011;59322;51.382;7.372;2023-11-19T03:53:48;55.03;;;50.97;;
71502;SDS011;59322;51.382;7.372;2023-11-19T03:56:14;49.45;;;45.60;;
71502;SDS011;59322;51.382;7.372;2023-11-19T03:58:40;63.97;;;59.22;;
71502;SDS011;59322;51.382;7.372;2023-11-19T04:01:06;54.45;;;49.92;;
71502;SDS011;59322;51.382;7.372;2023-11-19T04:03:36;65.22;;;59.97;;
71502;SDS011;59322;51.382;7.372;2023-11-19T04:06:02;1513.65;;;762.75;;
71502;SDS011;59322;51.382;7.372;2023-11-19T04:08:28;1999.90;;;999.90;;
71502;SDS011;59322;51.382;7.372;2023-11-19T04:10:54;1999.90;;;999.90;;
71502;SDS011;59322;51.382;7.372;2023-11-19T04:13:20;1999.90;;;999.90;;
71502;SDS011;59322;51.382;7.372;2023-11-19T04:15:46;1999.90;;;999.90;;
71502;SDS011;59322;51.382;7.372;2023-11-19T04:18:11;1999.90;;;999.90;;
71502;SDS011;59322;51.382;7.372;2023-11-19T04:20:37;1999.90;;;999.90;;
71502;SDS011;59322;51.382;7.372;2023-11-19T04:23:03;65.97;;;60.90;;
71502;SDS011;59322;51.382;7.372;2023-11-19T04:25:29;62.75;;;57.80;;
71502;SDS011;59322;51.382;7.372;2023-11-19T04:27:55;67.70;;;62.83;;
71502;SDS011;59322;51.382;7.372;2023-11-19T04:30:21;1514.43;;;763.30;;
71502;SDS011;59322;51.382;7.372;2023-11-19T04:32:47;1999.90;;;999.90;;
71502;SDS011;59322;51.382;7.372;2023-11-19T04:35:13;1999.90;;;999.90;;
71502;SDS011;59322;51.382;7.372;2023-11-19T04:37:39;1999.90;;;999.90;;
71502;SDS011;59322;51.382;7.372;2023-11-19T04:40:05;1999.90;;;999.90;;
71502;SDS011;59322;51.382;7.372;2023-11-19T04:42:31;1999.90;;;999.90;;
71502;SDS011;59322;51.382;7.372;2023-11-19T04:44:57;1999.90;;;999.90;;
71502;SDS011;59322;51.382;7.372;2023-11-19T04:47:22;1999.90;;;999.90;;
71502;SDS011;59322;51.382;7.372;2023-11-19T04:49:48;1999.90;;;999.90;;
71502;SDS011;59322;51.382;7.372;2023-11-19T04:52:14;1999.90;;;999.90;;
71502;SDS011;59322;51.382;7.372;2023-11-19T04:54:43;1999.90;;;999.90;;
71502;SDS011;59322;51.382;7.372;2023-11-19T04:57:09;1999.90;;;999.90;;
71502;SDS011;59322;51.382;7.372;2023-11-19T04:59:35;1999.90;;;999.90;;
71502;SDS011;59322;51.382;7.372;2023-11-19T05:02:01;1999.90;;;999.90;;
71502;SDS011;59322;51.382;7.372;2023-11-19T05:04:27;1999.90;;;999.90;;
71502;SDS011;59322;51.382;7.372;2023-11-19T05:06:53;1999.90;;;999.90;;
71502;SDS011;59322;51.382;7.372;2023-11-19T05:09:19;1999.90;;;999.90;;
71502;SDS011;59322;51.382;7.372;2023-11-19T05:11:45;1999.90;;;999.90;;
71502;SDS011;59322;51.382;7.372;2023-11-19T05:14:11;1999.90;;;999.90;;
71502;SDS011;59322;51.382;7.372;2023-11-19T05:16:39;1999.90;;;999.90;;
71502;SDS011;59322;51.382;7.372;2023-11-19T05:19:05;1999.90;;;999.90;;
71502;SDS011;59322;51.382;7.372;2023-11-19T05:21:30;1999.90;;;999.90;;
71502;SDS011;59322;51.382;7.372;2023-11-19T05:23:56;1999.90;;;999.90;;
71502;SDS011;59322;51.382;7.372;2023-11-19T05:26:23;1999.90;;;999.90;;
71502;SDS011;59322;51.382;7.372;2023-11-19T05:28:49;1999.90;;;999.90;;
71502;SDS011;59322;51.382;7.372;2023-11-19T05:31:15;1999.90;;;999.90;;
71502;SDS011;59322;51.382;7.372;2023-11-19T05:33:41;1999.90;;;999.90;;
71502;SDS011;59322;51.382;7.372;2023-11-19T05:36:07;1999.90;;;999.90;;
71502;SDS011;59322;51.382;7.372;2023-11-19T05:38:34;1999.90;;;999.90;;
71502;SDS011;59322;51.382;7.372;2023-11-19T05:41:00;1999.90;;;999.90;;
71502;SDS011;59322;51.382;7.372;2023-11-19T05:43:26;1999.90;;;999.90;;
71502;SDS011;59322;51.382;7.372;2023-11-19T05:45:52;1999.90;;;999.90;;
71502;SDS011;59322;51.382;7.372;2023-11-19T05:48:18;1999.90;;;999.90;;
71502;SDS011;59322;51.382;7.372;2023-11-19T05:50:44;1999.90;;;999.90;;
71502;SDS011;59322;51.382;7.372;2023-11-19T05:53:10;1999.90;;;999.90;;
71502;SDS011;59322;51.382;7.372;2023-11-19T05:55:36;1999.90;;;999.90;;
71502;SDS011;59322;51.382;7.372;2023-11-19T05:58:02;1999.90;;;999.90;;
71502;SDS011;59322;51.382;7.372;2023-11-19T06:00:28;1999.90;;;999.90;;
71502;SDS011;59322;51.382;7.372;2023-11-19T06:02:53;1999.90;;;999.90;;
71502;SDS011;59322;51.382;7.372;2023-11-19T06:05:19;1999.90;;;999.90;;
71502;SDS011;59322;51.382;7.372;2023-11-19T06:07:45;1999.90;;;999.90;;
71502;SDS011;59322;51.382;7.372;2023-11-19T06:10:11;1999.90;;;999.90;;
71502;SDS011;59322;51.382;7.372;2023-11-19T06:12:37;1999.90;;;999.90;;
71502;SDS011;59322;51.382;7.372;2023-11-19T06:15:06;1999.90;;;999.90;;
71502;SDS011;59322;51.382;7.372;2023-11-19T06:17:33;1999.90;;;999.90;;
71502;SDS011;59322;51.382;7.372;2023-11-19T06:19:58;1999.90;;;999.90;;
71502;SDS011;59322;51.382;7.372;2023-11-19T06:22:24;1999.90;;;999.90;;
71502;SDS011;59322;51.382;7.372;2023-11-19T06:24:50;1999.90;;;999.90;;
71502;SDS011;59322;51.382;7.372;2023-11-19T06:27:16;1999.90;;;999.90;;
71502;SDS011;59322;51.382;7.372;2023-11-19T06:29:42;1999.90;;;999.90;;
71502;SDS011;59322;51.382;7.372;2023-11-19T06:32:08;1999.90;;;999.90;;
71502;SDS011;59322;51.382;7.372;2023-11-19T06:34:34;1999.90;;;999.90;;
71502;SDS011;59322;51.382;7.372;2023-11-19T06:37:00;1999.90;;;999.90;;
71502;SDS011;59322;51.382;7.372;2023-11-19T06:39:26;1999.90;;;999.90;;
71502;SDS011;59322;51.382;7.372;2023-11-19T06:41:51;1999.90;;;999.90;;
71502;SDS011;59322;51.382;7.372;2023-11-19T06:44:17;1999.90;;;999.90;;
71502;SDS011;59322;51.382;7.372;2023-11-19T06:46:43;1999.90;;;999.90;;
71502;SDS011;59322;51.382;7.372;2023-11-19T06:49:09;1999.90;;;999.90;;
71502;SDS011;59322;51.382;7.372;2023-11-19T06:51:35;1999.90;;;999.90;;
71502;SDS011;59322;51.382;7.372;2023-11-19T06:54:01;1999.90;;;999.90;;
71502;SDS011;59322;51.382;7.372;2023-11-19T06:56:27;1999.90;;;999.90;;
71502;SDS011;59322;51.382;7.372;2023-11-19T06:58:53;1999.90;;;999.90;;
71502;SDS011;59322;51.382;7.372;2023-11-19T07:01:19;1999.90;;;999.90;;
71502;SDS011;59322;51.382;7.372;2023-11-19T07:03:45;1999.90;;;999.90;;
71502;SDS011;59322;51.382;7.372;2023-11-19T07:06:11;1999.90;;;999.90;;
71502;SDS011;59322;51.382;7.372;2023-11-19T07:08:37;1999.90;;;999.90;;
71502;SDS011;59322;51.382;7.372;2023-11-19T07:11:03;1999.90;;;999.90;;
71502;SDS011;59322;51.382;7.372;2023-11-19T07:13:29;1999.90;;;999.90;;
71502;SDS011;59322;51.382;7.372;2023-11-19T07:15:55;1999.90;;;999.90;;
71502;SDS011;59322;51.382;7.372;2023-11-19T07:18:21;1999.90;;;999.90;;
71502;SDS011;59322;51.382;7.372;2023-11-19T07:20:48;1999.90;;;999.90;;
71502;SDS011;59322;51.382;7.372;2023-11-19T07:23:14;1999.90;;;999.90;;
71502;SDS011;59322;51.382;7.372;2023-11-19T07:25:39;1999.90;;;999.90;;
71502;SDS011;59322;51.382;7.372;2023-11-19T07:28:05;1999.90;;;999.90;;
71502;SDS011;59322;51.382;7.372;2023-11-19T07:30:31;1999.90;;;999.90;;
71502;SDS011;59322;51.382;7.372;2023-11-19T07:32:57;1999.90;;;999.90;;
71502;SDS011;59322;51.382;7.372;2023-11-19T07:35:23;1999.90;;;999.90;;
71502;SDS011;59322;51.382;7.372;2023-11-19T07:37:49;1999.90;;;999.90;;
71502;SDS011;59322;51.382;7.372;2023-11-19T07:40:15;1999.90;;;999.90;;
71502;SDS011;59322;51.382;7.372;2023-11-19T07:42:41;1999.90;;;999.90;;
71502;SDS011;59322;51.382;7.372;2023-11-19T07:45:07;1999.90;;;999.90;;
71502;SDS011;59322;51.382;7.372;2023-11-19T07:47:33;1999.90;;;999.90;;
71502;SDS011;59322;51.382;7.372;2023-11-19T07:49:58;1999.90;;;999.90;;
71502;SDS011;59322;51.382;7.372;2023-11-19T07:52:24;1999.90;;;999.90;;
71502;SDS011;59322;51.382;7.372;2023-11-19T07:54:50;1999.90;;;999.90;;
71502;SDS011;59322;51.382;7.372;2023-11-19T07:57:16;1999.90;;;999.90;;
71502;SDS011;59322;51.382;7.372;2023-11-19T07:59:42;1999.90;;;999.90;;
71502;SDS011;59322;51.382;7.372;2023-11-19T08:02:08;1999.90;;;999.90;;
71502;SDS011;59322;51.382;7.372;2023-11-19T08:04:34;1999.90;;;999.90;;
71502;SDS011;59322;51.382;7.372;2023-11-19T08:07:00;1999.90;;;999.90;;
71502;SDS011;59322;51.382;7.372;2023-11-19T08:09:26;1999.90;;;999.90;;
71502;SDS011;59322;51.382;7.372;2023-11-19T08:11:51;1999.90;;;999.90;;
71502;SDS011;59322;51.382;7.372;2023-11-19T08:14:17;1999.90;;;999.90;;
71502;SDS011;59322;51.382;7.372;2023-11-19T08:16:43;1999.90;;;999.90;;
71502;SDS011;59322;51.382;7.372;2023-11-19T08:19:09;1999.90;;;999.90;;
71502;SDS011;59322;51.382;7.372;2023-11-19T08:21:35;1999.90;;;999.90;;
71502;SDS011;59322;51.382;7.372;2023-11-19T08:24:01;1999.90;;;999.90;;
71502;SDS011;59322;51.382;7.372;2023-11-19T08:26:27;1999.90;;;999.90;;
71502;SDS011;59322;51.382;7.372;2023-11-19T08:28:53;1999.90;;;999.90;;
71502;SDS011;59322;51.382;7.372;2023-11-19T08:31:19;1999.90;;;999.90;;
71502;SDS011;59322;51.382;7.372;2023-11-19T08:33:44;1999.90;;;999.90;;
71502;SDS011;59322;51.382;7.372;2023-11-19T08:36:16;1999.90;;;999.90;;
71502;SDS011;59322;51.382;7.372;2023-11-19T08:38:42;1999.90;;;999.90;;
71502;SDS011;59322;51.382;7.372;2023-11-19T08:41:08;1999.90;;;999.90;;
71502;SDS011;59322;51.382;7.372;2023-11-19T08:43:34;1999.90;;;999.90;;
71502;SDS011;59322;51.382;7.372;2023-11-19T08:46:00;1999.90;;;999.90;;
71502;SDS011;59322;51.382;7.372;2023-11-19T08:48:26;1999.90;;;999.90;;
71502;SDS011;59322;51.382;7.372;2023-11-19T08:50:52;1999.90;;;999.90;;
71502;SDS011;59322;51.382;7.372;2023-11-19T08:53:18;1999.90;;;999.90;;
71502;SDS011;59322;51.382;7.372;2023-11-19T08:55:43;1999.90;;;999.90;;
71502;SDS011;59322;51.382;7.372;2023-11-19T08:58:09;1999.90;;;999.90;;
71502;SDS011;59322;51.382;7.372;2023-11-19T09:00:35;1999.90;;;999.90;;
71502;SDS011;59322;51.382;7.372;2023-11-19T09:03:01;1999.90;;;999.90;;
71502;SDS011;59322;51.382;7.372;2023-11-19T09:05:27;1999.90;;;999.90;;
71502;SDS011;59322;51.382;7.372;2023-11-19T09:07:53;1999.90;;;999.90;;
71502;SDS011;59322;51.382;7.372;2023-11-19T09:10:19;1999.90;;;999.90;;
71502;SDS011;59322;51.382;7.372;2023-11-19T09:12:45;1999.90;;;999.90;;
71502;SDS011;59322;51.382;7.372;2023-11-19T09:15:10;1999.90;;;999.90;;
71502;SDS011;59322;51.382;7.372;2023-11-19T09:17:36;1999.90;;;999.90;;
71502;SDS011;59322;51.382;7.372;2023-11-19T09:20:02;1999.90;;;999.90;;
71502;SDS011;59322;51.382;7.372;2023-11-19T09:22:28;1999.90;;;999.90;;
71502;SDS011;59322;51.382;7.372;2023-11-19T09:24:54;1999.90;;;999.90;;
71502;SDS011;59322;51.382;7.372;2023-11-19T09:27:20;1999.90;;;999.90;;
71502;SDS011;59322;51.382;7.372;2023-11-19T09:29:46;1999.90;;;999.90;;
71502;SDS011;59322;51.382;7.372;2023-11-19T09:32:12;1999.90;;;999.90;;
71502;SDS011;59322;51.382;7.372;2023-11-19T09:34:38;1999.90;;;999.90;;
71502;SDS011;59322;51.382;7.372;2023-11-19T09:37:03;1999.90;;;999.90;;
71502;SDS011;59322;51.382;7.372;2023-11-19T09:39:29;1999.90;;;999.90;;
71502;SDS011;59322;51.382;7.372;2023-11-19T09:41:55;1999.90;;;999.90;;
71502;SDS011;59322;51.382;7.372;2023-11-19T09:44:21;1999.90;;;999.90;;
71502;SDS011;59322;51.382;7.372;2023-11-19T09:46:47;1999.90;;;999.90;;
71502;SDS011;59322;51.382;7.372;2023-11-19T09:49:13;1999.90;;;999.90;;
71502;SDS011;59322;51.382;7.372;2023-11-19T09:51:40;1999.90;;;999.90;;
71502;SDS011;59322;51.382;7.372;2023-11-19T09:54:06;1999.90;;;999.90;;
71502;SDS011;59322;51.382;7.372;2023-11-19T09:56:32;1999.90;;;999.90;;
71502;SDS011;59322;51.382;7.372;2023-11-19T09:58:58;1999.90;;;999.90;;
71502;SDS011;59322;51.382;7.372;2023-11-19T10:01:24;1999.90;;;999.90;;
71502;SDS011;59322;51.382;7.372;2023-11-19T10:03:50;1999.90;;;999.90;;
71502;SDS011;59322;51.382;7.372;2023-11-19T10:06:18;1999.90;;;999.90;;
71502;SDS011;59322;51.382;7.372;2023-11-19T10:08:44;1999.90;;;999.90;;
71502;SDS011;59322;51.382;7.372;2023-11-19T10:11:10;1999.90;;;999.90;;
71502;SDS011;59322;51.382;7.372;2023-11-19T10:13:36;1999.90;;;999.90;;
71502;SDS011;59322;51.382;7.372;2023-11-19T10:16:12;1999.90;;;999.90;;
71502;SDS011;59322;51.382;7.372;2023-11-19T10:18:47;1999.90;;;999.90;;
71502;SDS011;59322;51.382;7.372;2023-11-19T10:21:13;1999.90;;;999.90;;
71502;SDS011;59322;51.382;7.372;2023-11-19T10:26:18;1999.90;;;999.90;;
71502;SDS011;59322;51.382;7.372;2023-11-19T10:28:43;1999.90;;;999.90;;
71502;SDS011;59322;51.382;7.372;2023-11-19T10:31:12;1999.90;;;999.90;;
71502;SDS011;59322;51.382;7.372;2023-11-19T10:33:38;1999.90;;;999.90;;
71502;SDS011;59322;51.382;7.372;2023-11-19T10:36:04;1999.90;;;999.90;;
71502;SDS011;59322;51.382;7.372;2023-11-19T10:38:30;1999.90;;;999.90;;
71502;SDS011;59322;51.382;7.372;2023-11-19T10:40:56;1999.90;;;999.90;;
71502;SDS011;59322;51.382;7.372;2023-11-19T10:43:22;1999.90;;;999.90;;
71502;SDS011;59322;51.382;7.372;2023-11-19T10:45:48;1999.90;;;999.90;;
71502;SDS011;59322;51.382;7.372;2023-11-19T10:48:14;1999.90;;;999.90;;
71502;SDS011;59322;51.382;7.372;2023-11-19T10:50:41;1999.90;;;999.90;;
71502;SDS011;59322;51.382;7.372;2023-11-19T10:53:07;1999.90;;;999.90;;
71502;SDS011;59322;51.382;7.372;2023-11-19T10:55:34;1999.90;;;999.90;;
71502;SDS011;59322;51.382;7.372;2023-11-19T10:58:01;1999.90;;;999.90;;
71502;SDS011;59322;51.382;7.372;2023-11-19T11:00:28;1999.90;;;999.90;;
71502;SDS011;59322;51.382;7.372;2023-11-19T11:02:55;1999.90;;;999.90;;
71502;SDS011;59322;51.382;7.372;2023-11-19T11:05:22;1999.90;;;999.90;;
71502;SDS011;59322;51.382;7.372;2023-11-19T11:07:48;1999.90;;;999.90;;
71502;SDS011;59322;51.382;7.372;2023-11-19T11:10:16;1999.90;;;999.90;;
71502;SDS011;59322;51.382;7.372;2023-11-19T11:12:42;1999.90;;;999.90;;
71502;SDS011;59322;51.382;7.372;2023-11-19T11:15:10;1999.90;;;999.90;;
71502;SDS011;59322;51.382;7.372;2023-11-19T11:17:36;1999.90;;;999.90;;
71502;SDS011;59322;51.382;7.372;2023-11-19T11:20:05;1999.90;;;999.90;;
71502;SDS011;59322;51.382;7.372;2023-11-19T11:22:33;1999.90;;;999.90;;
71502;SDS011;59322;51.382;7.372;2023-11-19T11:27:56;1999.90;;;999.90;;
71502;SDS011;59322;51.382;7.372;2023-11-19T11:35:55;1999.90;;;999.90;;
71502;SDS011;59322;51.382;7.372;2023-11-19T11:38:25;1999.90;;;999.90;;
71502;SDS011;59322;51.382;7.372;2023-11-19T11:43:43;1999.90;;;999.90;;
71502;SDS011;59322;51.382;7.372;2023-11-19T11:46:09;1999.90;;;999.90;;
71502;SDS011;59322;51.382;7.372;2023-11-19T11:48:55;1999.90;;;999.90;;
71502;SDS011;59322;51.382;7.372;2023-11-19T11:51:49;1999.90;;;999.90;;
71502;SDS011;59322;51.382;7.372;2023-11-19T11:54:08;1999.90;;;999.90;;
71502;SDS011;59322;51.382;7.372;2023-11-19T11:56:33;1999.90;;;999.90;;
71502;SDS011;59322;51.382;7.372;2023-11-19T11:59:02;1999.90;;;999.90;;
71502;SDS011;59322;51.382;7.372;2023-11-19T12:01:28;1999.90;;;999.90;;
71502;SDS011;59322;51.382;7.372;2023-11-19T12:03:55;1999.90;;;999.90;;
71502;SDS011;59322;51.382;7.372;2023-11-19T12:06:21;1999.90;;;999.90;;
71502;SDS011;59322;51.382;7.372;2023-11-19T12:08:47;1999.90;;;999.90;;
71502;SDS011;59322;51.382;7.372;2023-11-19T12:11:14;1999.90;;;999.90;;
71502;SDS011;59322;51.382;7.372;2023-11-19T12:13:44;1999.90;;;999.90;;
71502;SDS011;59322;51.382;7.372;2023-11-19T12:16:11;1999.90;;;999.90;;
71502;SDS011;59322;51.382;7.372;2023-11-19T12:18:38;1999.90;;;999.90;;
71502;SDS011;59322;51.382;7.372;2023-11-19T12:21:04;1999.90;;;999.90;;
71502;SDS011;59322;51.382;7.372;2023-11-19T12:23:31;1999.90;;;999.90;;
71502;SDS011;59322;51.382;7.372;2023-11-19T12:25:57;1999.90;;;999.90;;
71502;SDS011;59322;51.382;7.372;2023-11-19T12:28:24;1999.90;;;999.90;;
71502;SDS011;59322;51.382;7.372;2023-11-19T12:30:50;1999.90;;;999.90;;
71502;SDS011;59322;51.382;7.372;2023-11-19T12:33:16;1999.90;;;999.90;;
71502;SDS011;59322;51.382;7.372;2023-11-19T12:35:43;1999.90;;;999.90;;
71502;SDS011;59322;51.382;7.372;2023-11-19T12:38:22;1999.90;;;999.90;;
71502;SDS011;59322;51.382;7.372;2023-11-19T12:41:04;1999.90;;;999.90;;
71502;SDS011;59322;51.382;7.372;2023-11-19T12:43:30;1999.90;;;999.90;;
71502;SDS011;59322;51.382;7.372;2023-11-19T12:45:56;1999.90;;;999.90;;
71502;SDS011;59322;51.382;7.372;2023-11-19T12:48:22;1999.90;;;999.90;;
71502;SDS011;59322;51.382;7.372;2023-11-19T12:50:54;1999.90;;;999.90;;
71502;SDS011;59322;51.382;7.372;2023-11-19T12:53:21;1999.90;;;999.90;;
71502;SDS011;59322;51.382;7.372;2023-11-19T12:55:47;1999.90;;;999.90;;
71502;SDS011;59322;51.382;7.372;2023-11-19T12:58:34;1999.90;;;999.90;;
71502;SDS011;59322;51.382;7.372;2023-11-19T13:01:00;1999.90;;;999.90;;
71502;SDS011;59322;51.382;7.372;2023-11-19T13:03:44;1999.90;;;999.90;;
71502;SDS011;59322;51.382;7.372;2023-11-19T13:06:11;1999.90;;;999.90;;
71502;SDS011;59322;51.382;7.372;2023-11-19T13:08:37;1999.90;;;999.90;;
71502;SDS011;59322;51.382;7.372;2023-11-19T13:11:03;1999.90;;;999.90;;
71502;SDS011;59322;51.382;7.372;2023-11-19T13:13:29;1999.90;;;999.90;;
71502;SDS011;59322;51.382;7.372;2023-11-19T13:16:04;1999.90;;;999.90;;
71502;SDS011;59322;51.382;7.372;2023-11-19T13:18:30;1999.90;;;999.90;;
71502;SDS011;59322;51.382;7.372;2023-11-19T13:20:56;1999.90;;;999.90;;
71502;SDS011;59322;51.382;7.372;2023-11-19T13:23:22;1999.90;;;999.90;;
71502;SDS011;59322;51.382;7.372;2023-11-19T13:25:48;1999.90;;;999.90;;
71502;SDS011;59322;51.382;7.372;2023-11-19T13:28:14;1999.90;;;999.90;;
71502;SDS011;59322;51.382;7.372;2023-11-19T13:30:40;1999.90;;;999.90;;
71502;SDS011;59322;51.382;7.372;2023-11-19T13:33:06;1999.90;;;999.90;;
71502;SDS011;59322;51.382;7.372;2023-11-19T13:35:32;1999.90;;;999.90;;
71502;SDS011;59322;51.382;7.372;2023-11-19T13:37:58;1999.90;;;999.90;;
71502;SDS011;59322;51.382;7.372;2023-11-19T13:40:24;1999.90;;;999.90;;
71502;SDS011;59322;51.382;7.372;2023-11-19T13:42:50;1999.90;;;999.90;;
71502;SDS011;59322;51.382;7.372;2023-11-19T13:45:16;38.90;;;35.65;;
71502;SDS011;59322;51.382;7.372;2023-11-19T13:47:45;49.45;;;45.30;;
71502;SDS011;59322;51.382;7.372;2023-11-19T13:50:11;65.38;;;60.03;;
71502;SDS011;59322;51.382;7.372;2023-11-19T13:52:38;71.22;;;65.68;;
71502;SDS011;59322;51.382;7.372;2023-11-19T13:55:07;67.18;;;61.75;;
71502;SDS011;59322;51.382;7.372;2023-11-19T13:57:33;55.75;;;50.58;;
71502;SDS011;59322;51.382;7.372;2023-11-19T13:59:59;64.78;;;59.72;;
71502;SDS011;59322;51.382;7.372;2023-11-19T14:02:25;72.05;;;65.97;;